Belmiro Braga, Brazil
Current Conditions -  °F | °C
As of 9:00 PM on Friday 24 Oct 2014 (Local Time) from SBBQ Reporting Station
Broken Clouds Broken Clouds  
Wind Chill: 70°   Ceiling: 10000
Heat Index: 70°   Visibility: 6mi
Dew Point: 55°   Wind: 6mph
Humidity: 60%   Direction: 70°ENE
Pressure: 30.09"   Gusts: NA
Location:  21.95°S, 43.41°W
Report Text: SBBQ 242300Z 07005KT 9999 FEW040 FEW045TCU BKN100 21/13 Q1019
Loading
Personal Weather Stations






























Interactive Weather Map
Tropical Storm Tracking
New forecast layout! Learn more

10-Day Weather Forecast

Advertisements
Track Severe Weather on mobile